createdAt,value
2019-03-28T00:02:04.218Z,9.43
2019-03-28T00:04:32.882Z,9.75
2019-03-28T00:07:01.213Z,9.33
2019-03-28T00:09:29.556Z,8.40
2019-03-28T00:11:57.907Z,9.20
2019-03-28T00:14:26.241Z,8.50
2019-03-28T00:16:54.888Z,9.20
2019-03-28T00:19:23.478Z,8.63
2019-03-28T00:21:52.151Z,8.93
2019-03-28T00:24:22.326Z,9.30
2019-03-28T00:26:50.734Z,9.20
2019-03-28T00:29:19.080Z,8.78
2019-03-28T00:31:48.114Z,9.63
2019-03-28T00:34:16.511Z,9.50
2019-03-28T00:36:44.857Z,9.10
2019-03-28T00:39:13.479Z,9.60
2019-03-28T00:41:42.155Z,9.80
2019-03-28T00:44:10.574Z,9.97
2019-03-28T00:46:38.906Z,9.23
2019-03-28T00:49:07.231Z,9.73
2019-03-28T00:51:35.579Z,10.13
2019-03-28T00:54:03.913Z,9.63
2019-03-28T00:56:44.931Z,9.78
2019-03-28T00:59:02.315Z,8.88
2019-03-28T01:01:31.181Z,9.53
2019-03-28T01:03:59.521Z,8.95
2019-03-28T01:06:27.834Z,8.23
2019-03-28T01:08:56.203Z,9.30
2019-03-28T01:11:24.527Z,9.00
2019-03-28T01:13:52.875Z,9.48
2019-03-28T01:16:21.211Z,8.93
2019-03-28T01:18:49.550Z,8.70
2019-03-28T01:21:17.870Z,9.45
2019-03-28T01:23:46.546Z,9.43
2019-03-28T01:26:14.872Z,8.90
2019-03-28T01:28:43.202Z,9.00
2019-03-28T01:31:11.602Z,9.33
2019-03-28T01:33:39.937Z,8.70
2019-03-28T01:36:08.246Z,9.70
2019-03-28T01:38:36.614Z,9.20
2019-03-28T01:41:04.918Z,9.73
2019-03-28T01:43:33.244Z,9.50
2019-03-28T01:46:01.581Z,9.20
2019-03-28T01:48:29.896Z,10.23
2019-03-28T01:50:58.596Z,11.60
2019-03-28T01:53:26.934Z,12.43
2019-03-28T01:55:55.290Z,13.62
2019-03-28T01:58:23.608Z,12.90
2019-03-28T02:00:52.325Z,12.93
2019-03-28T02:03:21.008Z,12.18
2019-03-28T02:05:49.432Z,11.25
2019-03-28T02:08:18.076Z,12.10
2019-03-28T02:10:46.468Z,12.23
2019-03-28T02:13:14.802Z,11.93
2019-03-28T02:15:43.403Z,11.95
2019-03-28T02:18:11.992Z,10.25
2019-03-28T02:20:40.358Z,9.90
2019-03-28T02:23:08.676Z,10.68
2019-03-28T02:25:37.327Z,10.43
2019-03-28T02:28:06.025Z,9.90
2019-03-28T02:30:34.617Z,10.08
2019-03-28T02:33:03.027Z,10.00
2019-03-28T02:35:31.351Z,10.00
2019-03-28T02:37:59.669Z,10.40
2019-03-28T02:40:28.031Z,10.80
2019-03-28T02:42:56.357Z,9.83
2019-03-28T02:45:24.710Z,9.58
2019-03-28T02:47:53.037Z,9.40
2019-03-28T02:50:21.387Z,9.80
2019-03-28T02:52:49.718Z,10.75
2019-03-28T02:55:18.042Z,10.00
2019-03-28T02:57:46.366Z,9.33
2019-03-28T03:00:15.861Z,10.10
2019-03-28T03:02:44.197Z,9.68
2019-03-28T03:05:12.752Z,10.40
2019-03-28T03:07:41.862Z,9.68
2019-03-28T03:10:10.293Z,10.15
2019-03-28T03:12:38.630Z,11.00
2019-03-28T03:15:07.610Z,10.80
2019-03-28T03:17:35.937Z,10.65
2019-03-28T03:20:06.010Z,9.83
2019-03-28T03:22:34.352Z,10.72
2019-03-28T03:25:03.015Z,9.43
2019-03-28T03:27:31.363Z,9.57
2019-03-28T03:29:59.676Z,10.25
2019-03-28T03:32:28.023Z,9.60
2019-03-28T03:34:56.337Z,9.50
2019-03-28T03:37:25.029Z,9.30
2019-03-28T03:39:53.458Z,8.20
2019-03-28T03:42:22.085Z,9.10
2019-03-28T03:44:50.491Z,7.85
2019-03-28T03:47:19.554Z,7.80
2019-03-28T03:49:48.234Z,8.27
2019-03-28T03:52:16.557Z,8.20
2019-03-28T03:54:45.317Z,7.97
2019-03-28T03:57:13.999Z,7.13
2019-03-28T03:59:42.351Z,7.50
2019-03-28T04:02:11.051Z,7.40
2019-03-28T04:04:39.599Z,9.00
2019-03-28T04:07:07.974Z,8.30
2019-03-28T04:09:36.331Z,8.80
2019-03-28T04:12:04.984Z,8.73
2019-03-28T04:14:33.326Z,9.38
2019-03-28T04:17:01.641Z,8.50
2019-03-28T04:19:30.402Z,8.70
2019-03-28T04:22:00.125Z,9.53
2019-03-28T04:24:28.581Z,9.38
2019-03-28T04:26:57.334Z,9.40
2019-03-28T04:29:25.728Z,9.65
2019-03-28T04:31:54.052Z,9.65
2019-03-28T04:34:22.382Z,9.50
2019-03-28T04:36:50.749Z,10.10
2019-03-28T04:39:19.100Z,9.38
2019-03-28T04:41:47.462Z,10.55
2019-03-28T04:44:15.772Z,10.40
2019-03-28T04:46:44.140Z,10.18
2019-03-28T04:49:15.544Z,11.35
2019-03-28T04:51:44.049Z,11.08
2019-03-28T04:54:12.352Z,10.43
2019-03-28T04:56:40.945Z,11.48
2019-03-28T04:59:09.336Z,11.35
2019-03-28T05:01:37.709Z,10.90
2019-03-28T05:04:06.103Z,12.20
2019-03-28T05:06:34.440Z,12.78
2019-03-28T05:09:02.769Z,11.68
2019-03-28T05:11:31.112Z,11.10
2019-03-28T05:13:59.444Z,11.70
2019-03-28T05:16:27.775Z,12.00
2019-03-28T05:18:56.446Z,11.90
2019-03-28T05:21:24.800Z,11.95
2019-03-28T05:23:53.156Z,11.50
2019-03-28T05:26:21.493Z,12.25
2019-03-28T05:28:57.487Z,12.10
2019-03-28T05:31:20.372Z,12.00
2019-03-28T05:33:48.722Z,12.15
2019-03-28T05:36:17.361Z,13.05
2019-03-28T05:38:46.541Z,12.50
2019-03-28T05:41:17.384Z,15.48
2019-03-28T05:43:45.682Z,12.90
2019-03-28T05:46:14.039Z,13.20
2019-03-28T05:48:42.455Z,12.10
2019-03-28T05:51:10.784Z,12.13
2019-03-28T05:53:39.134Z,12.07
2019-03-28T05:56:07.465Z,12.30
2019-03-28T05:58:36.223Z,12.68
2019-03-28T06:01:04.631Z,11.95
2019-03-28T06:03:32.965Z,13.03
2019-03-28T06:06:01.303Z,13.58
2019-03-28T06:08:29.648Z,13.18
2019-03-28T06:10:57.974Z,13.65
2019-03-28T06:13:26.618Z,13.58
2019-03-28T06:15:55.004Z,13.55
2019-03-28T06:18:23.341Z,13.60
2019-03-28T06:20:51.987Z,13.20
2019-03-28T06:23:20.344Z,13.60
2019-03-28T06:25:49.560Z,13.55
2019-03-28T06:28:18.422Z,13.83
2019-03-28T06:30:46.757Z,13.60
2019-03-28T06:33:15.215Z,14.13
2019-03-28T06:35:43.559Z,14.03
2019-03-28T06:38:11.909Z,13.93
2019-03-28T06:40:40.260Z,12.90
2019-03-28T06:43:08.625Z,14.00
2019-03-28T06:45:36.953Z,14.10
2019-03-28T06:48:05.356Z,13.20
2019-03-28T06:50:33.750Z,13.60
2019-03-28T06:53:02.099Z,13.20
2019-03-28T06:55:30.416Z,13.45
2019-03-28T06:57:59.371Z,13.38
2019-03-28T07:00:27.719Z,12.65
2019-03-28T07:02:56.634Z,12.78
2019-03-28T07:05:25.325Z,12.83
2019-03-28T07:07:54.100Z,13.40
2019-03-28T07:10:22.811Z,13.00
2019-03-28T07:12:51.134Z,13.28
2019-03-28T07:15:20.479Z,13.98
2019-03-28T07:17:49.091Z,13.50
2019-03-28T07:20:17.518Z,13.70
2019-03-28T07:22:46.221Z,13.72
2019-03-28T07:25:14.680Z,13.93
2019-03-28T07:27:43.504Z,13.90
2019-03-28T07:30:13.267Z,13.80
2019-03-28T07:32:43.579Z,13.55
2019-03-28T07:35:12.359Z,14.50
2019-03-28T07:37:40.694Z,13.43
2019-03-28T07:40:09.200Z,14.47
2019-03-28T07:42:37.534Z,13.85
2019-03-28T07:45:07.811Z,13.40
2019-03-28T07:47:36.296Z,13.22
2019-03-28T07:50:06.874Z,13.78
2019-03-28T07:52:35.189Z,13.60
2019-03-28T07:55:05.618Z,13.97
2019-03-28T07:57:34.249Z,13.60
2019-03-28T08:00:04.513Z,14.30
2019-03-28T08:02:32.652Z,12.68
2019-03-28T08:05:01.880Z,14.43
2019-03-28T08:07:43.945Z,12.60
2019-03-28T08:10:00.660Z,12.68
2019-03-28T08:12:28.993Z,12.85
2019-03-28T08:14:57.311Z,13.43
2019-03-28T08:17:25.652Z,13.13
2019-03-28T08:19:53.988Z,12.03
2019-03-28T08:22:22.342Z,12.70
2019-03-28T08:24:50.669Z,12.78
2019-03-28T08:27:19.025Z,12.13
2019-03-28T08:29:47.412Z,13.22
2019-03-28T08:32:17.394Z,12.43
2019-03-28T08:34:45.717Z,11.53
2019-03-28T08:37:14.577Z,12.80
2019-03-28T08:39:44.715Z,12.30
2019-03-28T08:42:13.091Z,11.10
2019-03-28T08:44:41.411Z,10.40
2019-03-28T08:47:09.782Z,10.90
2019-03-28T08:49:38.095Z,11.63
2019-03-28T08:52:06.904Z,9.75
2019-03-28T08:54:35.589Z,9.95
2019-03-28T08:57:03.916Z,9.60
2019-03-28T08:59:32.561Z,10.15
2019-03-28T09:02:00.927Z,10.50
2019-03-28T09:04:29.273Z,9.10
2019-03-28T09:06:57.590Z,7.37
2019-03-28T09:09:26.272Z,6.63
2019-03-28T09:11:54.587Z,7.70
2019-03-28T09:14:23.000Z,7.10
2019-03-28T09:16:51.325Z,8.20
2019-03-28T09:19:19.983Z,8.35
2019-03-28T09:21:48.305Z,8.80
2019-03-28T09:24:16.646Z,8.80
2019-03-28T09:26:44.982Z,9.20
2019-03-28T09:29:13.305Z,9.83
2019-03-28T09:31:41.980Z,10.08
2019-03-28T09:34:10.301Z,11.35
2019-03-28T09:36:38.640Z,8.45
2019-03-28T09:39:09.133Z,6.28
2019-03-28T09:41:37.478Z,6.55
2019-03-28T09:44:05.785Z,6.35
2019-03-28T09:46:34.138Z,6.28
2019-03-28T09:49:02.457Z,5.70
2019-03-28T09:51:31.163Z,5.35
2019-03-28T09:53:59.739Z,5.58
2019-03-28T09:56:28.079Z,5.60
2019-03-28T09:58:56.390Z,5.70
2019-03-28T10:01:24.765Z,6.40
2019-03-28T10:03:53.379Z,6.00
2019-03-28T10:06:21.713Z,5.62
2019-03-28T10:08:50.055Z,3.87
2019-03-28T10:11:18.385Z,3.77
2019-03-28T10:13:46.817Z,3.07
2019-03-28T10:16:15.155Z,4.60
2019-03-28T10:18:43.480Z,5.10
2019-03-28T10:21:12.118Z,4.10
2019-03-28T10:23:40.528Z,3.90
2019-03-28T10:26:09.184Z,3.60
2019-03-28T10:28:37.495Z,3.17
2019-03-28T10:31:16.265Z,49.87
2019-03-28T10:33:36.179Z,4.60
2019-03-28T10:36:04.523Z,5.20
2019-03-28T10:38:32.838Z,5.10
2019-03-28T10:41:01.210Z,3.90
2019-03-28T10:43:29.771Z,4.07
2019-03-28T10:45:58.115Z,4.60
2019-03-28T10:48:26.445Z,4.30
2019-03-28T10:50:54.833Z,4.45
2019-03-28T10:53:23.170Z,3.92
2019-03-28T10:55:51.774Z,4.00
2019-03-28T10:58:20.213Z,3.83
2019-03-28T11:00:48.537Z,5.97
2019-03-28T11:03:16.871Z,5.78
2019-03-28T11:05:45.201Z,4.10
2019-03-28T11:08:13.897Z,4.15
2019-03-28T11:10:42.213Z,4.80
2019-03-28T11:13:10.572Z,4.12
2019-03-28T11:15:38.895Z,4.85
2019-03-28T11:18:07.216Z,4.92
2019-03-28T11:20:36.083Z,5.10
2019-03-28T11:23:05.619Z,4.20
2019-03-28T11:25:34.001Z,4.55
2019-03-28T11:28:02.322Z,4.58
2019-03-28T11:30:30.659Z,4.80
2019-03-28T11:32:58.984Z,4.60
2019-03-28T11:35:27.671Z,4.80
2019-03-28T11:37:56.079Z,4.40
2019-03-28T11:40:24.645Z,4.62
2019-03-28T11:42:53.918Z,4.42
2019-03-28T11:45:22.702Z,4.50
2019-03-28T11:47:51.010Z,4.00
2019-03-28T11:50:19.477Z,4.40
2019-03-28T11:52:48.065Z,4.80
2019-03-28T11:55:16.855Z,4.37
2019-03-28T11:57:45.179Z,5.10
2019-03-28T12:00:16.703Z,5.50
2019-03-28T12:02:45.274Z,5.10
2019-03-28T12:05:14.076Z,6.10
2019-03-28T12:07:42.407Z,5.67
2019-03-28T12:10:11.682Z,5.40
2019-03-28T12:12:40.008Z,5.60
2019-03-28T12:15:09.042Z,5.35
2019-03-28T12:17:37.394Z,6.00
2019-03-28T12:20:07.361Z,5.65
2019-03-28T12:22:36.090Z,6.37
2019-03-28T12:25:06.106Z,6.00
2019-03-28T12:27:34.789Z,5.70
2019-03-28T12:30:03.585Z,5.28
2019-03-28T12:32:31.911Z,4.97
2019-03-28T12:35:00.439Z,5.40
2019-03-28T12:37:29.131Z,5.10
2019-03-28T12:40:00.029Z,4.80
2019-03-28T12:42:27.989Z,5.17
2019-03-28T12:44:57.538Z,4.55
2019-03-28T12:47:27.044Z,4.80
2019-03-28T12:49:55.470Z,4.80
2019-03-28T12:52:23.823Z,4.60
2019-03-28T12:54:52.150Z,5.30
2019-03-28T12:57:20.495Z,5.10
2019-03-28T12:59:48.810Z,4.75
2019-03-28T13:02:28.108Z,4.72
2019-03-28T13:04:47.546Z,4.53
2019-03-28T13:07:15.943Z,4.42
2019-03-28T13:09:44.291Z,4.22
2019-03-28T13:12:12.613Z,4.70
2019-03-28T13:14:40.966Z,4.40
2019-03-28T13:17:09.625Z,4.45
2019-03-28T13:19:38.285Z,4.90
2019-03-28T13:22:06.593Z,5.10
2019-03-28T13:24:34.953Z,5.20
2019-03-28T13:27:03.266Z,5.00
2019-03-28T13:29:31.584Z,5.03
2019-03-28T13:31:59.905Z,5.47
2019-03-28T13:34:28.221Z,5.70
2019-03-28T13:36:56.949Z,5.70
2019-03-28T13:39:25.269Z,4.90
2019-03-28T13:41:53.570Z,4.90
2019-03-28T13:44:22.653Z,5.20
2019-03-28T13:46:51.376Z,5.50
2019-03-28T13:49:19.766Z,5.30
2019-03-28T13:51:48.061Z,5.20
2019-03-28T13:54:16.461Z,6.42
2019-03-28T13:56:44.998Z,6.50
2019-03-28T13:59:13.297Z,6.92
2019-03-28T14:01:41.674Z,7.08
2019-03-28T14:04:10.062Z,10.38
2019-03-28T14:06:38.376Z,6.10
2019-03-28T14:09:07.164Z,7.12
2019-03-28T14:11:35.524Z,6.83
2019-03-28T14:14:03.894Z,6.30
2019-03-28T14:16:32.216Z,5.92
2019-03-28T14:19:00.502Z,5.80
2019-03-28T14:21:28.805Z,6.30
2019-03-28T14:23:57.109Z,6.60
2019-03-28T14:26:25.678Z,7.03
2019-03-28T14:28:53.960Z,6.07
2019-03-28T14:31:22.278Z,6.03
2019-03-28T14:33:50.567Z,6.40
2019-03-28T14:36:18.945Z,6.07
2019-03-28T14:38:47.264Z,6.40
2019-03-28T14:41:15.582Z,6.50
2019-03-28T14:43:43.874Z,6.40
2019-03-28T14:46:12.178Z,6.30
2019-03-28T14:48:40.524Z,6.60
2019-03-28T14:51:09.240Z,6.70
2019-03-28T14:53:37.549Z,6.75
2019-03-28T14:56:05.999Z,7.22
2019-03-28T14:58:34.498Z,8.35
2019-03-28T15:01:02.814Z,7.53
2019-03-28T15:03:31.425Z,8.23
2019-03-28T15:05:59.737Z,8.37
2019-03-28T15:08:28.394Z,8.63
2019-03-28T15:10:56.710Z,8.85
2019-03-28T15:13:25.083Z,8.80
2019-03-28T15:15:53.734Z,9.05
2019-03-28T15:18:22.035Z,9.65
2019-03-28T15:20:50.364Z,10.05
2019-03-28T15:23:19.073Z,10.13
2019-03-28T15:25:47.390Z,10.55
2019-03-28T15:28:15.699Z,10.95
2019-03-28T15:30:44.321Z,12.25
2019-03-28T15:33:12.648Z,12.23
2019-03-28T15:35:41.000Z,10.82
2019-03-28T15:38:09.292Z,9.90
2019-03-28T15:40:37.651Z,9.98
2019-03-28T15:43:06.048Z,9.70
2019-03-28T15:45:34.411Z,7.40
2019-03-28T15:48:02.733Z,7.80
2019-03-28T15:50:31.040Z,6.70
2019-03-28T15:52:59.342Z,6.33
2019-03-28T15:55:27.641Z,5.17
2019-03-28T15:57:56.080Z,4.80
2019-03-28T16:00:24.356Z,5.30
2019-03-28T16:02:52.683Z,5.37
2019-03-28T16:05:21.296Z,5.50
2019-03-28T16:07:49.646Z,5.17
2019-03-28T16:10:18.097Z,5.17
2019-03-28T16:12:46.406Z,5.78
2019-03-28T16:15:15.486Z,5.10
2019-03-28T16:17:43.772Z,4.45
2019-03-28T16:20:12.178Z,4.50
2019-03-28T16:22:40.514Z,4.12
2019-03-28T16:25:08.897Z,4.15
2019-03-28T16:27:37.540Z,3.80
2019-03-28T16:30:10.827Z,4.50
2019-03-28T16:32:39.114Z,4.67
2019-03-28T16:35:07.884Z,5.20
2019-03-28T16:37:36.212Z,4.90
2019-03-28T16:40:05.998Z,4.50
2019-03-28T16:42:34.286Z,5.10
2019-03-28T16:45:02.575Z,4.47
2019-03-28T16:47:30.880Z,4.50
2019-03-28T16:49:59.186Z,4.60
2019-03-28T16:52:27.767Z,4.97
2019-03-28T16:54:56.355Z,4.90
2019-03-28T16:57:24.658Z,4.10
2019-03-28T16:59:52.951Z,4.30
2019-03-28T17:02:21.324Z,3.80
2019-03-28T17:04:49.758Z,3.90
2019-03-28T17:07:19.076Z,4.10
2019-03-28T17:09:47.844Z,4.55
2019-03-28T17:12:16.439Z,5.17
2019-03-28T17:14:45.031Z,4.95
2019-03-28T17:17:13.364Z,3.95
2019-03-28T17:19:42.900Z,3.70
2019-03-28T17:22:11.378Z,3.80
2019-03-28T17:24:39.691Z,4.87
2019-03-28T17:27:07.998Z,5.03
2019-03-28T17:29:36.289Z,4.55
2019-03-28T17:32:04.604Z,4.75
2019-03-28T17:34:35.393Z,5.40
2019-03-28T17:37:03.312Z,5.22
2019-03-28T17:39:31.596Z,6.65
2019-03-28T17:42:00.010Z,4.20
2019-03-28T17:44:28.290Z,5.40
2019-03-28T17:46:56.909Z,4.60
2019-03-28T17:49:25.954Z,5.75
2019-03-28T17:51:55.003Z,4.65
2019-03-28T17:54:23.286Z,3.75
2019-03-28T17:56:51.590Z,3.98
2019-03-28T17:59:19.885Z,4.37
2019-03-28T18:01:48.162Z,3.62
2019-03-28T18:04:22.826Z,4.10
2019-03-28T18:06:46.667Z,4.28
2019-03-28T18:09:15.099Z,4.30
2019-03-28T18:11:43.415Z,4.75
2019-03-28T18:14:11.790Z,7.95
2019-03-28T18:16:40.081Z,6.80
2019-03-28T18:19:08.384Z,5.10
2019-03-28T18:21:36.676Z,5.50
2019-03-28T18:24:05.077Z,4.47
2019-03-28T18:26:33.423Z,4.62
2019-03-28T18:29:01.793Z,4.60
2019-03-28T18:31:30.600Z,7.30
2019-03-28T18:33:59.034Z,7.50
2019-03-28T18:36:27.670Z,10.28
2019-03-28T18:38:55.987Z,9.08
2019-03-28T18:41:24.629Z,11.22
2019-03-28T18:43:53.206Z,6.33
2019-03-28T18:46:21.493Z,4.92
2019-03-28T18:48:50.066Z,4.50
2019-03-28T18:51:18.364Z,4.60
2019-03-28T18:53:46.668Z,4.00
2019-03-28T18:56:14.951Z,4.90
2019-03-28T18:58:43.270Z,5.03
2019-03-28T19:01:11.587Z,4.30
2019-03-28T19:03:39.903Z,5.08
2019-03-28T19:06:08.223Z,5.20
2019-03-28T19:08:36.647Z,5.40
2019-03-28T19:11:04.949Z,5.85
2019-03-28T19:13:33.551Z,5.75
2019-03-28T19:16:01.863Z,5.07
2019-03-28T19:18:30.167Z,4.95
2019-03-28T19:20:58.459Z,5.83
2019-03-28T19:23:27.064Z,6.00
2019-03-28T19:25:55.478Z,6.62
2019-03-28T19:28:29.219Z,5.90
2019-03-28T19:30:54.144Z,5.70
2019-03-28T19:33:22.456Z,6.20
2019-03-28T19:35:51.132Z,5.80
2019-03-28T19:38:19.646Z,7.20
2019-03-28T19:40:47.998Z,6.50
2019-03-28T19:43:20.889Z,6.62
2019-03-28T19:45:47.421Z,6.12
2019-03-28T19:48:15.718Z,6.90
2019-03-28T19:50:44.070Z,7.00
2019-03-28T19:53:12.387Z,6.10
2019-03-28T19:55:40.704Z,5.67
2019-03-28T19:58:08.990Z,5.50
2019-03-28T20:00:37.372Z,5.85
2019-03-28T20:03:05.726Z,5.08
2019-03-28T20:05:46.825Z,5.50
2019-03-28T20:08:14.854Z,4.83
2019-03-28T20:10:34.916Z,5.70
2019-03-28T20:13:05.265Z,5.55
2019-03-28T20:15:33.935Z,5.87
2019-03-28T20:18:02.253Z,7.75
2019-03-28T20:20:30.576Z,6.50
2019-03-28T20:22:58.874Z,6.30
2019-03-28T20:25:27.189Z,5.50
2019-03-28T20:27:55.608Z,6.33
2019-03-28T20:30:24.090Z,6.20
2019-03-28T20:32:52.442Z,6.58
2019-03-28T20:35:21.921Z,6.10
2019-03-28T20:37:50.346Z,5.80
2019-03-28T20:40:19.295Z,5.72
2019-03-28T20:42:47.637Z,6.20
2019-03-28T20:45:16.928Z,6.25
2019-03-28T20:47:45.242Z,7.00
2019-03-28T20:50:14.490Z,7.42
2019-03-28T20:52:42.785Z,6.90
2019-03-28T20:55:11.190Z,7.10
2019-03-28T20:57:40.576Z,7.30
2019-03-28T21:00:09.710Z,7.30
2019-03-28T21:02:38.174Z,7.20
2019-03-28T21:05:07.437Z,8.20
2019-03-28T21:07:35.738Z,8.33
2019-03-28T21:10:05.850Z,8.40
2019-03-28T21:12:34.467Z,8.70
2019-03-28T21:15:02.788Z,8.40
2019-03-28T21:17:32.294Z,8.13
2019-03-28T21:20:01.057Z,8.50
2019-03-28T21:22:29.365Z,8.10
2019-03-28T21:24:57.682Z,9.03
2019-03-28T21:27:25.972Z,8.23
2019-03-28T21:29:54.289Z,8.20
2019-03-28T21:32:22.595Z,7.50
2019-03-28T21:34:51.205Z,6.70
2019-03-28T21:37:19.514Z,7.40
2019-03-28T21:39:47.831Z,6.90
2019-03-28T21:42:16.133Z,7.40
2019-03-28T21:44:44.443Z,7.22
2019-03-28T21:47:12.762Z,7.28
2019-03-28T21:49:41.054Z,7.20
2019-03-28T21:52:10.299Z,6.85
2019-03-28T21:54:38.606Z,6.50
2019-03-28T21:57:06.914Z,6.50
2019-03-28T21:59:35.206Z,7.20
2019-03-28T22:02:03.510Z,7.20
2019-03-28T22:04:31.813Z,6.50
2019-03-28T22:07:00.131Z,7.30
2019-03-28T22:09:28.420Z,7.20
2019-03-28T22:11:56.736Z,6.95
2019-03-28T22:14:25.065Z,7.80
2019-03-28T22:16:53.354Z,7.83
2019-03-28T22:19:21.669Z,7.40
2019-03-28T22:21:49.983Z,7.37
2019-03-28T22:24:18.267Z,7.75
2019-03-28T22:26:46.577Z,7.75
2019-03-28T22:29:15.424Z,7.87
2019-03-28T22:31:44.127Z,7.50
2019-03-28T22:34:12.414Z,7.45
2019-03-28T22:36:40.720Z,7.72
2019-03-28T22:39:09.308Z,7.70
2019-03-28T22:41:37.622Z,7.20
2019-03-28T22:44:05.909Z,7.80
2019-03-28T22:46:34.227Z,7.60
2019-03-28T22:49:02.514Z,8.10
2019-03-28T22:51:31.793Z,8.40
2019-03-28T22:54:00.540Z,8.10
2019-03-28T22:56:28.865Z,7.87
2019-03-28T22:58:57.512Z,8.30
2019-03-28T23:01:26.192Z,8.10
2019-03-28T23:03:54.493Z,8.40
2019-03-28T23:06:23.026Z,8.70
2019-03-28T23:08:51.689Z,8.38
2019-03-28T23:11:20.061Z,8.40
2019-03-28T23:13:48.355Z,8.15
2019-03-28T23:16:16.660Z,7.40
2019-03-28T23:18:44.957Z,7.50
2019-03-28T23:21:13.255Z,8.43
2019-03-28T23:23:41.580Z,7.70
2019-03-28T23:26:09.922Z,7.90
2019-03-28T23:28:38.232Z,7.85
2019-03-28T23:31:06.516Z,7.95
2019-03-28T23:33:34.850Z,7.50
2019-03-28T23:36:03.141Z,8.30
2019-03-28T23:38:31.457Z,7.55
2019-03-28T23:40:59.741Z,7.05
2019-03-28T23:43:28.247Z,7.80
2019-03-28T23:45:56.642Z,8.00
2019-03-28T23:48:24.937Z,7.40
2019-03-28T23:50:53.251Z,7.70
2019-03-28T23:53:21.566Z,8.43
2019-03-28T23:55:49.865Z,8.00
2019-03-28T23:58:18.169Z,7.60
